sensor_id;sensor_type;location;lat;lon;timestamp;P1;durP1;ratioP1;P2;durP2;ratioP2
26600;SDS011;14241;49.260;10.496;2023-05-23T00:00:16;11.93;;;10.13;;
26600;SDS011;14241;49.260;10.496;2023-05-23T00:02:41;10.45;;;9.32;;
26600;SDS011;14241;49.260;10.496;2023-05-23T00:05:06;11.07;;;9.63;;
26600;SDS011;14241;49.260;10.496;2023-05-23T00:07:32;12.48;;;9.68;;
26600;SDS011;14241;49.260;10.496;2023-05-23T00:09:57;11.95;;;10.02;;
26600;SDS011;14241;49.260;10.496;2023-05-23T00:12:23;11.13;;;9.47;;
26600;SDS011;14241;49.260;10.496;2023-05-23T00:14:48;15.45;;;10.68;;
26600;SDS011;14241;49.260;10.496;2023-05-23T00:17:13;12.80;;;10.30;;
26600;SDS011;14241;49.260;10.496;2023-05-23T00:19:38;10.93;;;9.50;;
26600;SDS011;14241;49.260;10.496;2023-05-23T00:22:04;12.15;;;10.52;;
26600;SDS011;14241;49.260;10.496;2023-05-23T00:24:29;11.70;;;10.00;;
26600;SDS011;14241;49.260;10.496;2023-05-23T00:26:54;14.88;;;9.93;;
26600;SDS011;14241;49.260;10.496;2023-05-23T00:29:20;12.60;;;10.53;;
26600;SDS011;14241;49.260;10.496;2023-05-23T00:31:45;11.57;;;10.38;;
26600;SDS011;14241;49.260;10.496;2023-05-23T00:34:11;11.75;;;10.52;;
26600;SDS011;14241;49.260;10.496;2023-05-23T00:36:36;14.25;;;10.30;;
26600;SDS011;14241;49.260;10.496;2023-05-23T00:39:02;11.13;;;9.85;;
26600;SDS011;14241;49.260;10.496;2023-05-23T00:41:28;13.60;;;10.40;;
26600;SDS011;14241;49.260;10.496;2023-05-23T00:43:54;14.60;;;9.65;;
26600;SDS011;14241;49.260;10.496;2023-05-23T00:46:20;12.02;;;10.48;;
26600;SDS011;14241;49.260;10.496;2023-05-23T00:48:45;13.52;;;11.07;;
26600;SDS011;14241;49.260;10.496;2023-05-23T00:51:11;12.27;;;10.82;;
26600;SDS011;14241;49.260;10.496;2023-05-23T00:53:37;12.57;;;11.25;;
26600;SDS011;14241;49.260;10.496;2023-05-23T00:56:02;12.13;;;10.85;;
26600;SDS011;14241;49.260;10.496;2023-05-23T00:58:27;12.37;;;11.07;;
26600;SDS011;14241;49.260;10.496;2023-05-23T01:00:53;12.95;;;10.63;;
26600;SDS011;14241;49.260;10.496;2023-05-23T01:03:19;12.52;;;10.52;;
26600;SDS011;14241;49.260;10.496;2023-05-23T01:05:45;14.68;;;10.85;;
26600;SDS011;14241;49.260;10.496;2023-05-23T01:08:10;13.90;;;10.90;;
26600;SDS011;14241;49.260;10.496;2023-05-23T01:10:35;14.23;;;10.60;;
26600;SDS011;14241;49.260;10.496;2023-05-23T01:13:05;11.25;;;9.98;;
26600;SDS011;14241;49.260;10.496;2023-05-23T01:18:06;12.52;;;10.38;;
26600;SDS011;14241;49.260;10.496;2023-05-23T01:20:34;12.55;;;10.45;;
26600;SDS011;14241;49.260;10.496;2023-05-23T01:23:13;11.95;;;10.75;;
26600;SDS011;14241;49.260;10.496;2023-05-23T01:25:57;11.35;;;10.23;;
26600;SDS011;14241;49.260;10.496;2023-05-23T01:28:31;14.48;;;10.50;;
26600;SDS011;14241;49.260;10.496;2023-05-23T01:30:57;11.35;;;9.88;;
26600;SDS011;14241;49.260;10.496;2023-05-23T01:33:22;12.23;;;9.45;;
26600;SDS011;14241;49.260;10.496;2023-05-23T01:35:49;12.00;;;10.38;;
26600;SDS011;14241;49.260;10.496;2023-05-23T01:38:14;12.00;;;9.20;;
26600;SDS011;14241;49.260;10.496;2023-05-23T01:40:40;10.60;;;9.48;;
26600;SDS011;14241;49.260;10.496;2023-05-23T01:43:05;12.67;;;9.47;;
26600;SDS011;14241;49.260;10.496;2023-05-23T01:45:31;14.55;;;9.73;;
26600;SDS011;14241;49.260;10.496;2023-05-23T01:47:57;12.50;;;10.07;;
26600;SDS011;14241;49.260;10.496;2023-05-23T01:50:23;11.43;;;9.38;;
26600;SDS011;14241;49.260;10.496;2023-05-23T01:52:48;11.43;;;10.10;;
26600;SDS011;14241;49.260;10.496;2023-05-23T01:55:15;11.13;;;9.00;;
26600;SDS011;14241;49.260;10.496;2023-05-23T01:57:42;11.48;;;10.00;;
26600;SDS011;14241;49.260;10.496;2023-05-23T02:00:10;12.60;;;9.65;;
26600;SDS011;14241;49.260;10.496;2023-05-23T02:02:36;13.48;;;9.45;;
26600;SDS011;14241;49.260;10.496;2023-05-23T02:05:01;11.57;;;9.60;;
26600;SDS011;14241;49.260;10.496;2023-05-23T02:07:26;11.95;;;9.38;;
26600;SDS011;14241;49.260;10.496;2023-05-23T02:09:53;11.77;;;9.73;;
26600;SDS011;14241;49.260;10.496;2023-05-23T02:12:18;10.90;;;9.50;;
26600;SDS011;14241;49.260;10.496;2023-05-23T02:14:43;11.23;;;9.43;;
26600;SDS011;14241;49.260;10.496;2023-05-23T02:17:08;11.47;;;9.67;;
26600;SDS011;14241;49.260;10.496;2023-05-23T02:19:34;10.57;;;9.48;;
26600;SDS011;14241;49.260;10.496;2023-05-23T02:21:59;10.90;;;9.60;;
26600;SDS011;14241;49.260;10.496;2023-05-23T02:24:24;13.65;;;10.15;;
26600;SDS011;14241;49.260;10.496;2023-05-23T02:26:50;15.47;;;9.57;;
26600;SDS011;14241;49.260;10.496;2023-05-23T02:29:15;12.40;;;10.37;;
26600;SDS011;14241;49.260;10.496;2023-05-23T02:31:40;11.55;;;9.85;;
26600;SDS011;14241;49.260;10.496;2023-05-23T02:34:05;14.67;;;9.93;;
26600;SDS011;14241;49.260;10.496;2023-05-23T02:36:31;13.73;;;10.35;;
26600;SDS011;14241;49.260;10.496;2023-05-23T02:38:57;12.13;;;10.15;;
26600;SDS011;14241;49.260;10.496;2023-05-23T02:41:22;12.88;;;10.63;;
26600;SDS011;14241;49.260;10.496;2023-05-23T02:43:48;13.15;;;10.85;;
26600;SDS011;14241;49.260;10.496;2023-05-23T02:46:13;12.82;;;11.05;;
26600;SDS011;14241;49.260;10.496;2023-05-23T02:48:38;14.70;;;11.07;;
26600;SDS011;14241;49.260;10.496;2023-05-23T02:51:03;12.82;;;10.88;;
26600;SDS011;14241;49.260;10.496;2023-05-23T02:53:29;16.77;;;11.18;;
26600;SDS011;14241;49.260;10.496;2023-05-23T02:55:54;13.75;;;11.52;;
26600;SDS011;14241;49.260;10.496;2023-05-23T02:58:19;13.07;;;11.32;;
26600;SDS011;14241;49.260;10.496;2023-05-23T03:00:45;14.00;;;11.70;;
26600;SDS011;14241;49.260;10.496;2023-05-23T03:03:10;14.77;;;11.70;;
26600;SDS011;14241;49.260;10.496;2023-05-23T03:05:35;14.57;;;11.30;;
26600;SDS011;14241;49.260;10.496;2023-05-23T03:08:01;13.93;;;11.45;;
26600;SDS011;14241;49.260;10.496;2023-05-23T03:10:27;19.60;;;13.02;;
26600;SDS011;14241;49.260;10.496;2023-05-23T03:12:52;15.73;;;12.95;;
26600;SDS011;14241;49.260;10.496;2023-05-23T03:15:18;15.93;;;12.50;;
26600;SDS011;14241;49.260;10.496;2023-05-23T03:17:43;15.13;;;12.70;;
26600;SDS011;14241;49.260;10.496;2023-05-23T03:20:09;17.75;;;13.75;;
26600;SDS011;14241;49.260;10.496;2023-05-23T03:22:34;16.70;;;13.43;;
26600;SDS011;14241;49.260;10.496;2023-05-23T03:25:00;18.15;;;13.60;;
26600;SDS011;14241;49.260;10.496;2023-05-23T03:27:25;18.10;;;14.20;;
26600;SDS011;14241;49.260;10.496;2023-05-23T03:29:51;18.15;;;14.50;;
26600;SDS011;14241;49.260;10.496;2023-05-23T03:32:16;16.83;;;14.30;;
26600;SDS011;14241;49.260;10.496;2023-05-23T03:34:41;17.52;;;14.20;;
26600;SDS011;14241;49.260;10.496;2023-05-23T03:37:06;16.30;;;13.95;;
26600;SDS011;14241;49.260;10.496;2023-05-23T03:39:32;18.50;;;15.20;;
26600;SDS011;14241;49.260;10.496;2023-05-23T03:41:57;19.42;;;15.13;;
26600;SDS011;14241;49.260;10.496;2023-05-23T03:44:22;20.93;;;15.97;;
26600;SDS011;14241;49.260;10.496;2023-05-23T03:46:47;22.43;;;15.93;;
26600;SDS011;14241;49.260;10.496;2023-05-23T03:49:13;19.88;;;15.55;;
26600;SDS011;14241;49.260;10.496;2023-05-23T03:51:39;18.13;;;15.23;;
26600;SDS011;14241;49.260;10.496;2023-05-23T03:54:04;21.25;;;17.00;;
26600;SDS011;14241;49.260;10.496;2023-05-23T03:56:29;19.93;;;16.50;;
26600;SDS011;14241;49.260;10.496;2023-05-23T03:58:54;19.10;;;16.03;;
26600;SDS011;14241;49.260;10.496;2023-05-23T04:01:19;20.27;;;16.17;;
26600;SDS011;14241;49.260;10.496;2023-05-23T04:03:45;23.43;;;15.87;;
26600;SDS011;14241;49.260;10.496;2023-05-23T04:06:10;21.15;;;16.83;;
26600;SDS011;14241;49.260;10.496;2023-05-23T04:08:36;20.20;;;17.40;;
26600;SDS011;14241;49.260;10.496;2023-05-23T04:11:01;19.90;;;16.87;;
26600;SDS011;14241;49.260;10.496;2023-05-23T04:13:26;22.40;;;17.13;;
26600;SDS011;14241;49.260;10.496;2023-05-23T04:15:52;20.13;;;16.10;;
26600;SDS011;14241;49.260;10.496;2023-05-23T04:18:20;21.48;;;17.20;;
26600;SDS011;14241;49.260;10.496;2023-05-23T04:20:46;18.27;;;16.13;;
26600;SDS011;14241;49.260;10.496;2023-05-23T04:23:11;20.17;;;16.23;;
26600;SDS011;14241;49.260;10.496;2023-05-23T04:25:36;20.47;;;17.27;;
26600;SDS011;14241;49.260;10.496;2023-05-23T04:28:01;22.77;;;16.67;;
26600;SDS011;14241;49.260;10.496;2023-05-23T04:30:27;23.77;;;17.00;;
26600;SDS011;14241;49.260;10.496;2023-05-23T04:32:55;20.30;;;16.70;;
26600;SDS011;14241;49.260;10.496;2023-05-23T04:35:22;22.50;;;17.08;;
26600;SDS011;14241;49.260;10.496;2023-05-23T04:37:47;22.80;;;17.55;;
26600;SDS011;14241;49.260;10.496;2023-05-23T04:40:13;18.45;;;16.50;;
26600;SDS011;14241;49.260;10.496;2023-05-23T04:42:38;21.83;;;17.83;;
26600;SDS011;14241;49.260;10.496;2023-05-23T04:45:06;22.33;;;18.20;;
26600;SDS011;14241;49.260;10.496;2023-05-23T04:47:31;22.15;;;17.10;;
26600;SDS011;14241;49.260;10.496;2023-05-23T04:49:58;20.67;;;17.27;;
26600;SDS011;14241;49.260;10.496;2023-05-23T04:52:24;25.35;;;18.80;;
26600;SDS011;14241;49.260;10.496;2023-05-23T04:54:51;22.45;;;18.02;;
26600;SDS011;14241;49.260;10.496;2023-05-23T04:57:18;22.23;;;17.55;;
26600;SDS011;14241;49.260;10.496;2023-05-23T04:59:43;23.92;;;16.60;;
26600;SDS011;14241;49.260;10.496;2023-05-23T05:02:08;23.33;;;17.50;;
26600;SDS011;14241;49.260;10.496;2023-05-23T05:04:33;19.63;;;17.23;;
26600;SDS011;14241;49.260;10.496;2023-05-23T05:06:58;22.97;;;17.43;;
26600;SDS011;14241;49.260;10.496;2023-05-23T05:09:24;21.77;;;17.98;;
26600;SDS011;14241;49.260;10.496;2023-05-23T05:11:50;19.67;;;15.98;;
26600;SDS011;14241;49.260;10.496;2023-05-23T05:14:15;22.50;;;16.90;;
26600;SDS011;14241;49.260;10.496;2023-05-23T05:16:40;22.35;;;17.05;;
26600;SDS011;14241;49.260;10.496;2023-05-23T05:19:06;23.45;;;16.77;;
26600;SDS011;14241;49.260;10.496;2023-05-23T05:21:31;20.20;;;15.73;;
26600;SDS011;14241;49.260;10.496;2023-05-23T05:23:57;19.70;;;16.70;;
26600;SDS011;14241;49.260;10.496;2023-05-23T05:26:23;21.38;;;16.45;;
26600;SDS011;14241;49.260;10.496;2023-05-23T05:28:49;18.58;;;16.25;;
26600;SDS011;14241;49.260;10.496;2023-05-23T05:31:15;20.38;;;15.68;;
26600;SDS011;14241;49.260;10.496;2023-05-23T05:33:40;19.63;;;16.40;;
26600;SDS011;14241;49.260;10.496;2023-05-23T05:36:09;19.27;;;16.00;;
26600;SDS011;14241;49.260;10.496;2023-05-23T05:38:35;21.23;;;16.38;;
26600;SDS011;14241;49.260;10.496;2023-05-23T05:41:00;19.97;;;15.83;;
26600;SDS011;14241;49.260;10.496;2023-05-23T05:43:25;22.27;;;15.37;;
26600;SDS011;14241;49.260;10.496;2023-05-23T05:45:50;21.47;;;15.90;;
26600;SDS011;14241;49.260;10.496;2023-05-23T05:48:16;20.23;;;16.00;;
26600;SDS011;14241;49.260;10.496;2023-05-23T05:50:41;20.48;;;16.52;;
26600;SDS011;14241;49.260;10.496;2023-05-23T05:53:09;22.38;;;17.55;;
26600;SDS011;14241;49.260;10.496;2023-05-23T05:55:34;18.48;;;16.25;;
26600;SDS011;14241;49.260;10.496;2023-05-23T05:57:59;21.27;;;16.90;;
26600;SDS011;14241;49.260;10.496;2023-05-23T06:00:25;18.27;;;15.20;;
26600;SDS011;14241;49.260;10.496;2023-05-23T06:02:50;22.77;;;17.03;;
26600;SDS011;14241;49.260;10.496;2023-05-23T06:05:15;19.33;;;16.05;;
26600;SDS011;14241;49.260;10.496;2023-05-23T06:07:44;21.05;;;15.48;;
26600;SDS011;14241;49.260;10.496;2023-05-23T06:10:09;17.65;;;15.75;;
26600;SDS011;14241;49.260;10.496;2023-05-23T06:12:37;18.92;;;14.88;;
26600;SDS011;14241;49.260;10.496;2023-05-23T06:15:03;17.13;;;14.52;;
26600;SDS011;14241;49.260;10.496;2023-05-23T06:17:28;17.85;;;14.80;;
26600;SDS011;14241;49.260;10.496;2023-05-23T06:19:54;15.97;;;13.47;;
26600;SDS011;14241;49.260;10.496;2023-05-23T06:22:19;21.77;;;16.20;;
26600;SDS011;14241;49.260;10.496;2023-05-23T06:24:44;17.35;;;14.75;;
26600;SDS011;14241;49.260;10.496;2023-05-23T06:27:10;20.55;;;15.50;;
26600;SDS011;14241;49.260;10.496;2023-05-23T06:29:35;16.00;;;14.35;;
26600;SDS011;14241;49.260;10.496;2023-05-23T06:32:01;16.85;;;14.48;;
26600;SDS011;14241;49.260;10.496;2023-05-23T06:34:26;16.02;;;14.27;;
26600;SDS011;14241;49.260;10.496;2023-05-23T06:36:52;20.23;;;18.13;;
26600;SDS011;14241;49.260;10.496;2023-05-23T06:39:17;18.13;;;16.25;;
26600;SDS011;14241;49.260;10.496;2023-05-23T06:41:42;20.03;;;16.07;;
26600;SDS011;14241;49.260;10.496;2023-05-23T06:44:08;21.02;;;15.32;;
26600;SDS011;14241;49.260;10.496;2023-05-23T06:46:33;21.63;;;15.55;;
26600;SDS011;14241;49.260;10.496;2023-05-23T06:48:58;19.63;;;16.73;;
26600;SDS011;14241;49.260;10.496;2023-05-23T06:51:23;24.23;;;17.27;;
26600;SDS011;14241;49.260;10.496;2023-05-23T06:53:49;20.25;;;16.48;;
26600;SDS011;14241;49.260;10.496;2023-05-23T06:56:14;18.58;;;15.52;;
26600;SDS011;14241;49.260;10.496;2023-05-23T06:58:39;18.02;;;15.60;;
26600;SDS011;14241;49.260;10.496;2023-05-23T07:01:05;19.58;;;15.55;;
26600;SDS011;14241;49.260;10.496;2023-05-23T07:03:30;17.55;;;15.70;;
26600;SDS011;14241;49.260;10.496;2023-05-23T07:05:56;19.73;;;16.25;;
26600;SDS011;14241;49.260;10.496;2023-05-23T07:08:22;19.40;;;14.80;;
26600;SDS011;14241;49.260;10.496;2023-05-23T07:10:47;18.92;;;14.35;;
26600;SDS011;14241;49.260;10.496;2023-05-23T07:13:12;23.30;;;15.37;;
26600;SDS011;14241;49.260;10.496;2023-05-23T07:15:37;16.43;;;14.23;;
26600;SDS011;14241;49.260;10.496;2023-05-23T07:18:02;17.67;;;14.57;;
26600;SDS011;14241;49.260;10.496;2023-05-23T07:20:28;17.67;;;14.15;;
26600;SDS011;14241;49.260;10.496;2023-05-23T07:22:53;20.47;;;14.33;;
26600;SDS011;14241;49.260;10.496;2023-05-23T07:25:18;21.45;;;15.52;;
26600;SDS011;14241;49.260;10.496;2023-05-23T07:27:44;19.08;;;13.63;;
26600;SDS011;14241;49.260;10.496;2023-05-23T07:30:09;21.57;;;15.67;;
26600;SDS011;14241;49.260;10.496;2023-05-23T07:32:35;18.35;;;15.63;;
26600;SDS011;14241;49.260;10.496;2023-05-23T07:35:00;15.90;;;14.05;;
26600;SDS011;14241;49.260;10.496;2023-05-23T07:37:25;17.45;;;15.57;;
26600;SDS011;14241;49.260;10.496;2023-05-23T07:39:51;18.95;;;15.65;;
26600;SDS011;14241;49.260;10.496;2023-05-23T07:42:17;18.90;;;15.73;;
26600;SDS011;14241;49.260;10.496;2023-05-23T07:44:42;15.83;;;14.13;;
26600;SDS011;14241;49.260;10.496;2023-05-23T07:47:07;17.40;;;14.57;;
26600;SDS011;14241;49.260;10.496;2023-05-23T07:49:32;18.37;;;14.03;;
26600;SDS011;14241;49.260;10.496;2023-05-23T07:51:58;19.83;;;14.82;;
26600;SDS011;14241;49.260;10.496;2023-05-23T07:54:23;20.75;;;15.55;;
26600;SDS011;14241;49.260;10.496;2023-05-23T07:56:48;18.98;;;14.85;;
26600;SDS011;14241;49.260;10.496;2023-05-23T07:59:14;18.50;;;14.67;;
26600;SDS011;14241;49.260;10.496;2023-05-23T08:01:39;20.83;;;15.67;;
26600;SDS011;14241;49.260;10.496;2023-05-23T08:04:04;17.37;;;15.27;;
26600;SDS011;14241;49.260;10.496;2023-05-23T08:06:30;17.63;;;14.02;;
26600;SDS011;14241;49.260;10.496;2023-05-23T08:08:56;17.50;;;13.70;;
26600;SDS011;14241;49.260;10.496;2023-05-23T08:11:21;17.83;;;13.40;;
26600;SDS011;14241;49.260;10.496;2023-05-23T08:13:46;16.43;;;11.70;;
26600;SDS011;14241;49.260;10.496;2023-05-23T08:16:12;16.90;;;11.30;;
26600;SDS011;14241;49.260;10.496;2023-05-23T08:18:37;12.05;;;10.77;;
26600;SDS011;14241;49.260;10.496;2023-05-23T08:21:02;13.13;;;10.77;;
26600;SDS011;14241;49.260;10.496;2023-05-23T08:23:27;11.63;;;9.45;;
26600;SDS011;14241;49.260;10.496;2023-05-23T08:25:53;11.00;;;9.27;;
26600;SDS011;14241;49.260;10.496;2023-05-23T08:28:18;11.00;;;9.48;;
26600;SDS011;14241;49.260;10.496;2023-05-23T08:30:43;13.00;;;11.03;;
26600;SDS011;14241;49.260;10.496;2023-05-23T08:33:09;13.30;;;10.00;;
26600;SDS011;14241;49.260;10.496;2023-05-23T08:35:34;10.65;;;9.32;;
26600;SDS011;14241;49.260;10.496;2023-05-23T08:38:01;11.05;;;9.30;;
26600;SDS011;14241;49.260;10.496;2023-05-23T08:40:26;11.40;;;9.07;;
26600;SDS011;14241;49.260;10.496;2023-05-23T08:42:54;11.07;;;9.88;;
26600;SDS011;14241;49.260;10.496;2023-05-23T08:45:20;11.80;;;8.90;;
26600;SDS011;14241;49.260;10.496;2023-05-23T08:47:45;13.20;;;9.18;;
26600;SDS011;14241;49.260;10.496;2023-05-23T08:50:12;11.10;;;9.13;;
26600;SDS011;14241;49.260;10.496;2023-05-23T08:52:41;13.98;;;9.55;;
26600;SDS011;14241;49.260;10.496;2023-05-23T08:55:07;14.30;;;10.13;;
26600;SDS011;14241;49.260;10.496;2023-05-23T08:57:33;11.50;;;9.50;;
26600;SDS011;14241;49.260;10.496;2023-05-23T08:59:59;10.35;;;9.25;;
26600;SDS011;14241;49.260;10.496;2023-05-23T09:02:26;14.57;;;8.70;;
26600;SDS011;14241;49.260;10.496;2023-05-23T09:04:51;16.38;;;9.95;;
26600;SDS011;14241;49.260;10.496;2023-05-23T09:07:17;10.15;;;8.10;;
26600;SDS011;14241;49.260;10.496;2023-05-23T09:09:42;14.05;;;8.68;;
26600;SDS011;14241;49.260;10.496;2023-05-23T09:12:08;10.98;;;8.93;;
26600;SDS011;14241;49.260;10.496;2023-05-23T09:14:34;17.70;;;8.93;;
26600;SDS011;14241;49.260;10.496;2023-05-23T09:17:01;11.70;;;9.10;;
26600;SDS011;14241;49.260;10.496;2023-05-23T09:19:29;11.30;;;8.13;;
26600;SDS011;14241;49.260;10.496;2023-05-23T09:21:55;9.10;;;7.43;;
26600;SDS011;14241;49.260;10.496;2023-05-23T09:24:20;16.30;;;8.30;;
26600;SDS011;14241;49.260;10.496;2023-05-23T09:26:46;9.75;;;7.57;;
26600;SDS011;14241;49.260;10.496;2023-05-23T09:29:12;10.68;;;7.90;;
26600;SDS011;14241;49.260;10.496;2023-05-23T09:31:37;11.88;;;8.48;;
26600;SDS011;14241;49.260;10.496;2023-05-23T09:34:02;12.90;;;7.73;;
26600;SDS011;14241;49.260;10.496;2023-05-23T09:36:28;10.35;;;8.15;;
26600;SDS011;14241;49.260;10.496;2023-05-23T09:39:00;7.85;;;7.05;;
26600;SDS011;14241;49.260;10.496;2023-05-23T09:41:28;7.78;;;6.97;;
26600;SDS011;14241;49.260;10.496;2023-05-23T09:43:54;8.10;;;6.60;;
26600;SDS011;14241;49.260;10.496;2023-05-23T09:46:20;9.45;;;6.60;;
26600;SDS011;14241;49.260;10.496;2023-05-23T09:48:46;8.30;;;6.20;;
26600;SDS011;14241;49.260;10.496;2023-05-23T09:51:12;8.88;;;6.18;;
26600;SDS011;14241;49.260;10.496;2023-05-23T09:53:37;7.57;;;5.45;;
26600;SDS011;14241;49.260;10.496;2023-05-23T09:56:02;6.60;;;5.80;;
26600;SDS011;14241;49.260;10.496;2023-05-23T09:58:28;6.30;;;5.38;;
26600;SDS011;14241;49.260;10.496;2023-05-23T10:00:56;6.32;;;5.15;;
26600;SDS011;14241;49.260;10.496;2023-05-23T10:03:37;7.43;;;5.88;;
26600;SDS011;14241;49.260;10.496;2023-05-23T10:06:06;10.57;;;6.55;;
26600;SDS011;14241;49.260;10.496;2023-05-23T10:08:41;13.40;;;6.22;;
26600;SDS011;14241;49.260;10.496;2023-05-23T10:13:45;5.57;;;5.00;;
26600;SDS011;14241;49.260;10.496;2023-05-23T10:16:14;6.22;;;5.13;;
26600;SDS011;14241;49.260;10.496;2023-05-23T10:18:43;9.60;;;6.60;;
26600;SDS011;14241;49.260;10.496;2023-05-23T10:21:10;6.97;;;5.28;;
26600;SDS011;14241;49.260;10.496;2023-05-23T10:23:36;5.55;;;4.88;;
26600;SDS011;14241;49.260;10.496;2023-05-23T10:26:02;9.98;;;5.28;;
26600;SDS011;14241;49.260;10.496;2023-05-23T10:28:29;5.47;;;4.93;;
26600;SDS011;14241;49.260;10.496;2023-05-23T10:30:54;7.50;;;4.55;;
26600;SDS011;14241;49.260;10.496;2023-05-23T10:33:19;4.63;;;4.22;;
26600;SDS011;14241;49.260;10.496;2023-05-23T10:35:48;5.53;;;5.00;;
26600;SDS011;14241;49.260;10.496;2023-05-23T10:40:49;6.50;;;4.53;;
26600;SDS011;14241;49.260;10.496;2023-05-23T10:45:45;4.70;;;4.03;;
26600;SDS011;14241;49.260;10.496;2023-05-23T10:51:30;3.88;;;3.47;;
26600;SDS011;14241;49.260;10.496;2023-05-23T10:53:52;4.65;;;3.42;;
26600;SDS011;14241;49.260;10.496;2023-05-23T10:56:18;4.50;;;3.75;;
26600;SDS011;14241;49.260;10.496;2023-05-23T10:58:51;5.15;;;3.50;;
26600;SDS011;14241;49.260;10.496;2023-05-23T11:01:16;5.15;;;3.65;;
26600;SDS011;14241;49.260;10.496;2023-05-23T11:06:28;3.35;;;3.05;;
26600;SDS011;14241;49.260;10.496;2023-05-23T11:09:00;5.88;;;3.33;;
26600;SDS011;14241;49.260;10.496;2023-05-23T11:11:45;3.63;;;3.10;;
26600;SDS011;14241;49.260;10.496;2023-05-23T11:14:11;4.43;;;3.03;;
26600;SDS011;14241;49.260;10.496;2023-05-23T11:16:40;5.45;;;3.55;;
26600;SDS011;14241;49.260;10.496;2023-05-23T11:21:57;3.78;;;3.30;;
26600;SDS011;14241;49.260;10.496;2023-05-23T11:24:22;7.97;;;3.50;;
26600;SDS011;14241;49.260;10.496;2023-05-23T11:26:56;4.35;;;3.00;;
26600;SDS011;14241;49.260;10.496;2023-05-23T11:31:50;7.95;;;3.78;;
26600;SDS011;14241;49.260;10.496;2023-05-23T11:34:16;3.95;;;3.00;;
26600;SDS011;14241;49.260;10.496;2023-05-23T11:36:41;5.03;;;3.55;;
26600;SDS011;14241;49.260;10.496;2023-05-23T11:39:07;6.22;;;2.72;;
26600;SDS011;14241;49.260;10.496;2023-05-23T11:41:33;4.90;;;2.97;;
26600;SDS011;14241;49.260;10.496;2023-05-23T11:43:59;2.88;;;2.40;;
26600;SDS011;14241;49.260;10.496;2023-05-23T11:46:25;7.22;;;3.85;;
26600;SDS011;14241;49.260;10.496;2023-05-23T11:48:51;3.95;;;2.70;;
26600;SDS011;14241;49.260;10.496;2023-05-23T11:51:16;4.43;;;3.10;;
26600;SDS011;14241;49.260;10.496;2023-05-23T11:53:41;4.43;;;2.97;;
26600;SDS011;14241;49.260;10.496;2023-05-23T11:56:07;7.45;;;2.85;;
26600;SDS011;14241;49.260;10.496;2023-05-23T11:58:36;5.28;;;2.85;;
26600;SDS011;14241;49.260;10.496;2023-05-23T12:01:11;4.43;;;3.17;;
26600;SDS011;14241;49.260;10.496;2023-05-23T12:03:43;3.72;;;2.95;;
26600;SDS011;14241;49.260;10.496;2023-05-23T12:06:09;4.25;;;2.90;;
26600;SDS011;14241;49.260;10.496;2023-05-23T12:08:34;3.75;;;2.53;;
26600;SDS011;14241;49.260;10.496;2023-05-23T12:11:00;3.92;;;3.08;;
26600;SDS011;14241;49.260;10.496;2023-05-23T12:13:29;3.65;;;3.05;;
26600;SDS011;14241;49.260;10.496;2023-05-23T12:15:54;5.07;;;3.20;;
26600;SDS011;14241;49.260;10.496;2023-05-23T12:18:20;6.68;;;3.08;;
26600;SDS011;14241;49.260;10.496;2023-05-23T12:20:47;4.75;;;2.63;;
26600;SDS011;14241;49.260;10.496;2023-05-23T12:23:20;3.58;;;3.20;;
26600;SDS011;14241;49.260;10.496;2023-05-23T12:25:48;9.93;;;3.05;;
26600;SDS011;14241;49.260;10.496;2023-05-23T12:28:13;2.95;;;2.60;;
26600;SDS011;14241;49.260;10.496;2023-05-23T12:30:40;7.05;;;2.97;;
26600;SDS011;14241;49.260;10.496;2023-05-23T12:33:09;10.00;;;3.17;;
26600;SDS011;14241;49.260;10.496;2023-05-23T12:35:35;6.93;;;3.03;;
26600;SDS011;14241;49.260;10.496;2023-05-23T12:38:01;2.97;;;2.60;;
26600;SDS011;14241;49.260;10.496;2023-05-23T12:40:27;3.00;;;2.67;;
26600;SDS011;14241;49.260;10.496;2023-05-23T12:42:53;3.13;;;2.35;;
26600;SDS011;14241;49.260;10.496;2023-05-23T12:45:19;3.35;;;2.70;;
26600;SDS011;14241;49.260;10.496;2023-05-23T12:47:44;3.35;;;2.63;;
26600;SDS011;14241;49.260;10.496;2023-05-23T12:50:10;3.25;;;2.90;;
26600;SDS011;14241;49.260;10.496;2023-05-23T12:52:36;3.22;;;2.60;;
26600;SDS011;14241;49.260;10.496;2023-05-23T12:55:01;3.40;;;2.40;;
26600;SDS011;14241;49.260;10.496;2023-05-23T12:57:27;3.38;;;2.63;;
26600;SDS011;14241;49.260;10.496;2023-05-23T12:59:52;4.53;;;2.70;;
26600;SDS011;14241;49.260;10.496;2023-05-23T13:02:17;2.60;;;2.27;;
26600;SDS011;14241;49.260;10.496;2023-05-23T13:04:42;3.40;;;2.57;;
26600;SDS011;14241;49.260;10.496;2023-05-23T13:07:07;2.67;;;2.20;;
26600;SDS011;14241;49.260;10.496;2023-05-23T13:09:33;3.47;;;2.43;;
26600;SDS011;14241;49.260;10.496;2023-05-23T13:11:58;4.93;;;2.70;;
26600;SDS011;14241;49.260;10.496;2023-05-23T13:14:24;7.07;;;2.50;;
26600;SDS011;14241;49.260;10.496;2023-05-23T13:16:50;3.88;;;2.67;;
26600;SDS011;14241;49.260;10.496;2023-05-23T13:19:16;3.03;;;2.45;;
26600;SDS011;14241;49.260;10.496;2023-05-23T13:21:41;4.53;;;2.33;;
26600;SDS011;14241;49.260;10.496;2023-05-23T13:24:07;4.57;;;2.55;;
26600;SDS011;14241;49.260;10.496;2023-05-23T13:26:32;7.65;;;2.50;;
26600;SDS011;14241;49.260;10.496;2023-05-23T13:28:58;3.20;;;2.63;;
26600;SDS011;14241;49.260;10.496;2023-05-23T13:31:23;8.27;;;2.53;;
26600;SDS011;14241;49.260;10.496;2023-05-23T13:33:48;2.80;;;2.50;;
26600;SDS011;14241;49.260;10.496;2023-05-23T13:36:13;4.33;;;2.97;;
26600;SDS011;14241;49.260;10.496;2023-05-23T13:38:39;2.58;;;2.38;;
26600;SDS011;14241;49.260;10.496;2023-05-23T13:41:04;5.70;;;2.53;;
26600;SDS011;14241;49.260;10.496;2023-05-23T13:43:29;4.83;;;2.30;;
26600;SDS011;14241;49.260;10.496;2023-05-23T13:45:55;3.25;;;2.80;;
26600;SDS011;14241;49.260;10.496;2023-05-23T13:48:20;8.23;;;2.80;;
26600;SDS011;14241;49.260;10.496;2023-05-23T13:50:45;3.00;;;2.30;;
26600;SDS011;14241;49.260;10.496;2023-05-23T13:53:10;4.70;;;2.50;;
26600;SDS011;14241;49.260;10.496;2023-05-23T13:55:40;3.10;;;2.33;;
26600;SDS011;14241;49.260;10.496;2023-05-23T13:58:05;2.33;;;2.08;;
26600;SDS011;14241;49.260;10.496;2023-05-23T14:00:31;9.43;;;2.50;;
26600;SDS011;14241;49.260;10.496;2023-05-23T14:02:56;2.63;;;2.40;;
26600;SDS011;14241;49.260;10.496;2023-05-23T14:05:21;3.83;;;2.20;;
26600;SDS011;14241;49.260;10.496;2023-05-23T14:07:47;2.53;;;2.22;;
26600;SDS011;14241;49.260;10.496;2023-05-23T14:10:13;4.45;;;2.22;;
26600;SDS011;14241;49.260;10.496;2023-05-23T14:12:38;2.30;;;1.70;;
26600;SDS011;14241;49.260;10.496;2023-05-23T14:15:04;2.47;;;1.85;;
26600;SDS011;14241;49.260;10.496;2023-05-23T14:17:29;3.55;;;2.05;;
26600;SDS011;14241;49.260;10.496;2023-05-23T14:19:54;5.13;;;2.23;;
26600;SDS011;14241;49.260;10.496;2023-05-23T14:22:20;13.60;;;2.55;;
26600;SDS011;14241;49.260;10.496;2023-05-23T14:24:45;6.75;;;2.17;;
26600;SDS011;14241;49.260;10.496;2023-05-23T14:27:10;3.20;;;1.90;;
26600;SDS011;14241;49.260;10.496;2023-05-23T14:29:36;2.60;;;2.35;;
26600;SDS011;14241;49.260;10.496;2023-05-23T14:32:01;4.43;;;2.30;;